Time;durP1;ratioP1;P1;durP2;ratioP2;P2;SDS_P1;SDS_P2;PMS_P1;PMS_P2;Temp;Humidity;BMP_temperature;BMP_pressure;BME280_temperature;BME280_humidity;BME280_pressure;Samples;Min_cycle;Max_cycle;Signal;HPM_P1;HPM_P2
2023/04/09 03:01:01;;;;;;;18.30;16.73;;;7.10;99.90;;;;;;5584471;23;20765;-80
2023/04/09 03:03:29;;;;;;;19.77;18.03;;;7.00;99.90;;;;;;4918595;29;20211;-80
2023/04/09 03:05:55;;;;;;;18.67;17.10;;;7.10;99.90;;;;;;4903413;29;20186;-80
2023/04/09 03:08:21;;;;;;;19.60;17.90;;;7.00;99.90;;;;;;4901906;29;20187;-81
2023/04/09 03:10:47;;;;;;;21.17;19.50;;;7.00;99.90;;;;;;4907864;29;20207;-78
2023/04/09 03:13:13;;;;;;;21.33;19.73;;;7.00;99.90;;;;;;4910870;29;20251;-78
2023/04/09 03:15:40;;;;;;;22.80;21.00;;;7.00;99.90;;;;;;4925323;29;20191;-80
2023/04/09 03:18:06;;;;;;;23.70;21.93;;;7.00;99.90;;;;;;4902455;29;20657;-80
2023/04/09 03:20:31;;;;;;;28.90;26.87;;;6.90;99.90;;;;;;4908080;29;20214;-80
2023/04/09 03:22:57;;;;;;;29.80;27.57;;;6.90;99.90;;;;;;4910481;29;20677;-79
2023/04/09 03:25:23;;;;;;;35.07;32.30;;;6.90;99.90;;;;;;4911585;29;20547;-79
2023/04/09 03:27:49;;;;;;;34.63;32.23;;;6.90;99.90;;;;;;4903597;29;20179;-79
2023/04/09 03:30:15;;;;;;;38.30;35.40;;;7.00;99.90;;;;;;4934600;29;20186;-79
2023/04/09 03:32:40;;;;;;;38.33;35.53;;;6.90;99.90;;;;;;4908031;29;20623;-78
2023/04/09 03:35:06;;;;;;;37.63;34.83;;;6.90;99.90;;;;;;4910456;29;20191;-80
2023/04/09 03:37:32;;;;;;;38.13;35.53;;;6.80;99.90;;;;;;4920799;29;20619;-81
2023/04/09 03:39:58;;;;;;;44.80;41.93;;;6.80;99.90;;;;;;4923240;29;20183;-78
2023/04/09 03:42:24;;;;;;;46.03;43.23;;;6.80;99.90;;;;;;4935091;29;20251;-78
2023/04/09 03:44:52;;;;;;;44.33;41.43;;;6.80;99.90;;;;;;4915370;29;20594;-79
2023/04/09 03:47:18;;;;;;;51.03;47.70;;;6.80;99.90;;;;;;4908409;29;20556;-81
2023/04/09 03:49:44;;;;;;;43.97;40.90;;;6.80;99.90;;;;;;4904473;29;20183;-80
2023/04/09 03:52:10;;;;;;;34.77;32.30;;;6.80;99.90;;;;;;4919989;29;20214;-81
2023/04/09 03:54:35;;;;;;;23.07;21.17;;;6.70;99.90;;;;;;4909493;29;20258;-79
2023/04/09 03:57:02;;;;;;;21.90;20.10;;;6.70;99.90;;;;;;4918138;29;20218;-80
2023/04/09 03:59:28;;;;;;;25.03;23.13;;;6.70;99.90;;;;;;4917724;29;20183;-80
2023/04/09 04:01:54;;;;;;;22.30;20.30;;;6.70;99.90;;;;;;4910358;29;20230;-82
2023/04/09 04:04:25;;;;;;;19.90;18.10;;;6.70;99.90;;;;;;4906742;29;20194;-81
2023/04/09 04:06:51;;;;;;;18.87;17.27;;;6.70;99.90;;;;;;4890030;29;20207;-81
2023/04/09 04:09:17;;;;;;;18.13;16.23;;;6.70;99.90;;;;;;4899868;29;20190;-81
2023/04/09 04:11:43;;;;;;;17.70;16.07;;;6.60;99.90;;;;;;4933624;29;20214;-81
2023/04/09 04:14:09;;;;;;;16.50;15.03;;;6.60;99.90;;;;;;4912607;29;20183;-79
2023/04/09 04:16:34;;;;;;;18.10;16.40;;;6.50;99.90;;;;;;4903341;29;20202;-79
2023/04/09 04:19:00;;;;;;;24.60;22.70;;;6.50;99.90;;;;;;4919845;29;20219;-79
2023/04/09 04:21:26;;;;;;;24.43;22.23;;;6.50;99.90;;;;;;4903183;29;20219;-81
2023/04/09 04:23:52;;;;;;;22.40;20.33;;;6.50;99.90;;;;;;4919272;29;20183;-81
2023/04/09 04:26:17;;;;;;;22.03;20.13;;;6.50;99.90;;;;;;4902457;29;20238;-81
2023/04/09 04:28:43;;;;;;;23.40;21.47;;;6.50;99.90;;;;;;4901748;29;20202;-80
2023/04/09 04:31:10;;;;;;;22.97;20.83;;;6.50;99.90;;;;;;4902050;29;20222;-81
2023/04/09 04:33:40;;;;;;;23.50;21.50;;;6.50;99.90;;;;;;4901671;29;20186;-81
2023/04/09 04:36:08;;;;;;;25.47;23.43;;;6.50;99.90;;;;;;4920206;29;20230;-80
2023/04/09 04:38:34;;;;;;;24.47;22.47;;;6.50;99.90;;;;;;4929189;29;20187;-81
2023/04/09 04:41:01;;;;;;;25.77;23.57;;;6.60;99.90;;;;;;4920779;29;20226;-81
2023/04/09 04:43:27;;;;;;;30.90;28.57;;;6.60;99.90;;;;;;4902390;29;20184;-70
2023/04/09 04:45:53;;;;;;;28.60;26.27;;;6.60;99.90;;;;;;4915027;29;20195;-70
2023/04/09 04:48:19;;;;;;;31.87;29.40;;;6.50;99.90;;;;;;4915708;29;20647;-69
2023/04/09 04:50:45;;;;;;;32.50;29.77;;;6.60;99.90;;;;;;4915748;29;20211;-70
2023/04/09 04:53:10;;;;;;;31.60;29.17;;;6.60;99.90;;;;;;4915341;29;20265;-70
2023/04/09 04:55:38;;;;;;;36.30;33.80;;;6.70;99.90;;;;;;4914834;29;20187;-70
2023/04/09 04:58:04;;;;;;;35.73;33.37;;;6.70;99.90;;;;;;4916002;29;20179;-71
2023/04/09 05:00:30;;;;;;;34.70;32.23;;;6.70;99.90;;;;;;4933854;29;20309;-71
2023/04/09 05:02:56;;;;;;;35.67;33.07;;;6.70;99.90;;;;;;4934775;29;20278;-70
2023/04/09 05:05:22;;;;;;;34.50;32.03;;;6.80;99.90;;;;;;4915544;29;20239;-70
2023/04/09 05:07:47;;;;;;;19.53;17.73;;;6.80;99.90;;;;;;4914858;29;20186;-70
2023/04/09 05:10:13;;;;;;;16.40;14.70;;;6.90;99.90;;;;;;4913801;29;20183;-69
2023/04/09 05:12:39;;;;;;;22.03;19.97;;;6.90;99.90;;;;;;4915686;29;20612;-70
2023/04/09 05:15:06;;;;;;;46.43;43.43;;;7.10;99.90;;;;;;4915681;29;20183;-70
2023/04/09 05:17:31;;;;;;;38.83;36.20;;;7.20;99.90;;;;;;4915715;29;20202;-70
2023/04/09 05:19:57;;;;;;;18.67;16.97;;;7.40;99.90;;;;;;4914966;29;20663;-70
2023/04/09 05:22:23;;;;;;;22.63;20.47;;;7.60;99.90;;;;;;4898333;29;20242;-71
2023/04/09 05:24:49;;;;;;;18.60;16.80;;;7.80;99.90;;;;;;4914756;29;20190;-70
2023/04/09 05:27:15;;;;;;;21.07;19.30;;;8.00;99.90;;;;;;4898107;29;20254;-70
2023/04/09 05:29:41;;;;;;;52.93;49.30;;;8.20;99.90;;;;;;4896978;29;20215;-69
2023/04/09 05:32:08;;;;;;;36.47;33.90;;;8.40;99.90;;;;;;4914127;29;20289;-70
2023/04/09 05:34:34;;;;;;;25.73;23.63;;;8.50;99.90;;;;;;4914473;29;20198;-70
2023/04/09 05:37:00;;;;;;;27.60;25.53;;;8.80;99.90;;;;;;4897487;29;20195;-70
2023/04/09 05:39:26;;;;;;;38.53;35.97;;;9.20;99.90;;;;;;4914248;29;20190;-70
2023/04/09 05:41:51;;;;;;;38.07;35.57;;;9.40;99.90;;;;;;4914443;29;20237;-70
2023/04/09 05:44:18;;;;;;;27.83;25.87;;;9.50;99.90;;;;;;4914107;29;20186;-74
2023/04/09 05:46:43;;;;;;;18.40;16.60;;;9.80;99.90;;;;;;4897450;29;20179;-70
2023/04/09 05:49:09;;;;;;;25.80;24.03;;;10.10;99.90;;;;;;4912676;29;20191;-69
2023/04/09 05:51:35;;;;;;;22.50;21.00;;;10.40;99.90;;;;;;4914379;29;20227;-69
2023/04/09 05:54:02;;;;;;;19.17;17.67;;;10.70;99.90;;;;;;4897523;29;20191;-70
2023/04/09 05:56:28;;;;;;;14.33;13.17;;;10.80;99.90;;;;;;4914292;29;20179;-70
2023/04/09 05:58:54;;;;;;;15.77;12.80;;;11.00;99.90;;;;;;4914486;29;20199;-69
2023/04/09 06:01:20;;;;;;;13.20;11.93;;;10.90;99.90;;;;;;4914415;29;20226;-68
2023/04/09 06:03:46;;;;;;;13.10;11.90;;;11.00;99.90;;;;;;4914665;29;20630;-69
2023/04/09 06:06:12;;;;;;;12.63;11.60;;;11.00;99.90;;;;;;4918508;29;20190;-69
2023/04/09 06:08:38;;;;;;;17.37;15.90;;;11.30;99.90;;;;;;4918148;29;20605;-69
2023/04/09 06:11:08;;;;;;;17.43;16.13;;;11.70;99.90;;;;;;4917728;29;20211;-68
2023/04/09 06:13:33;;;;;;;18.73;17.07;;;12.00;99.90;;;;;;4917862;29;20362;-75
2023/04/09 06:16:00;;;;;;;34.97;32.77;;;12.00;99.90;;;;;;4918087;29;20242;-71
2023/04/09 06:18:26;;;;;;;46.87;44.00;;;12.30;99.90;;;;;;4917750;29;20195;-71
2023/04/09 06:21:01;;;;;;;48.57;45.67;;;12.70;99.90;;;;;;4921315;29;20213;-75
2023/04/09 06:23:27;;;;;;;56.97;53.63;;;12.70;99.90;;;;;;4905216;29;20238;-68
2023/04/09 06:25:52;;;;;;;55.43;52.20;;;12.30;99.90;;;;;;4901344;29;20191;-66
2023/04/09 06:28:18;;;;;;;52.13;49.03;;;12.20;99.90;;;;;;4917985;29;20620;-64
2023/04/09 06:30:44;;;;;;;48.60;45.63;;;12.10;99.90;;;;;;4918228;29;20207;-66
2023/04/09 06:33:10;;;;;;;32.47;30.27;;;11.90;99.90;;;;;;4917756;29;20198;-65
2023/04/09 06:35:36;;;;;;;30.93;28.87;;;11.90;99.90;;;;;;4917853;29;20747;-65
2023/04/09 06:38:02;;;;;;;27.87;25.83;;;11.80;99.90;;;;;;4901183;29;20218;-70
2023/04/09 06:40:29;;;;;;;35.53;33.30;;;12.00;99.90;;;;;;4917240;29;20221;-70
2023/04/09 06:42:55;;;;;;;34.27;32.00;;;12.10;99.90;;;;;;4918245;29;20190;-70
2023/04/09 06:45:20;;;;;;;38.33;35.93;;;12.10;99.90;;;;;;4917717;29;20564;-71
2023/04/09 06:47:47;;;;;;;41.43;38.90;;;12.20;99.90;;;;;;4917695;29;20194;-70
2023/04/09 06:50:12;;;;;;;38.67;36.20;;;12.30;99.90;;;;;;4917799;29;20191;-71
2023/04/09 06:52:38;;;;;;;34.50;32.20;;;12.20;99.90;;;;;;4900994;29;20187;-71
2023/04/09 06:55:04;;;;;;;35.40;33.00;;;12.00;99.90;;;;;;4901099;29;20274;-70
2023/04/09 06:57:30;;;;;;;24.40;22.33;;;11.80;99.90;;;;;;4900972;29;20187;-69
2023/04/09 06:59:56;;;;;;;13.73;12.50;;;11.70;99.90;;;;;;4917741;29;20175;-70
2023/04/09 07:02:22;;;;;;;13.87;12.47;;;11.50;99.90;;;;;;4900193;29;20625;-69
2023/04/09 07:04:48;;;;;;;16.20;14.77;;;11.60;99.90;;;;;;4917697;29;20191;-69
2023/04/09 07:07:13;;;;;;;23.57;21.97;;;11.80;99.90;;;;;;4918111;29;20269;-69
2023/04/09 07:09:39;;;;;;;29.67;27.87;;;12.00;99.90;;;;;;4900867;29;20187;-69
2023/04/09 07:12:05;;;;;;;22.73;21.03;;;12.00;99.90;;;;;;4901135;29;20249;-70
2023/04/09 07:14:31;;;;;;;24.00;22.20;;;11.60;99.90;;;;;;4900780;29;20275;-70
2023/04/09 07:16:56;;;;;;;27.73;25.50;;;12.00;99.90;;;;;;4916251;29;20566;-70
2023/04/09 07:19:22;;;;;;;31.83;29.60;;;12.00;99.90;;;;;;4917144;29;20737;-70
2023/04/09 07:21:48;;;;;;;33.83;31.53;;;12.20;99.90;;;;;;4900363;29;20230;-70
2023/04/09 07:24:14;;;;;;;14.67;13.37;;;12.70;99.90;;;;;;4916909;29;20176;-70
2023/04/09 07:26:40;;;;;;;14.70;13.50;;;12.70;99.90;;;;;;4917362;29;20214;-70
2023/04/09 07:29:06;;;;;;;17.80;16.30;;;12.40;99.90;;;;;;4899913;29;20242;-70
2023/04/09 07:31:32;;;;;;;13.27;12.07;;;12.60;99.90;;;;;;4898684;29;20301;-70
2023/04/09 07:33:58;;;;;;;14.23;12.93;;;12.90;99.90;;;;;;4917342;29;20275;-69
2023/04/09 07:36:24;;;;;;;14.60;13.20;;;12.80;99.90;;;;;;4917195;29;20231;-69
2023/04/09 07:38:50;;;;;;;13.60;12.30;;;12.70;99.90;;;;;;4916892;29;20251;-69
2023/04/09 07:41:16;;;;;;;13.43;11.87;;;12.80;99.90;;;;;;4917562;29;20219;-69
2023/04/09 07:43:42;;;;;;;15.60;14.30;;;13.10;99.90;;;;;;4900724;29;20183;-69
2023/04/09 07:46:07;;;;;;;16.70;15.33;;;13.50;99.90;;;;;;4917202;29;20194;-70
2023/04/09 07:48:33;;;;;;;17.20;15.90;;;13.10;99.90;;;;;;4916676;29;20202;-70
2023/04/09 07:50:59;;;;;;;14.83;13.63;;;12.90;99.90;;;;;;4900346;29;20234;-71
2023/04/09 07:53:25;;;;;;;15.93;14.57;;;13.00;99.90;;;;;;4900058;29;20183;-69
2023/04/09 07:55:51;;;;;;;16.03;14.73;;;12.80;99.90;;;;;;4916598;29;20222;-69
2023/04/09 07:58:16;;;;;;;15.43;14.20;;;12.70;99.90;;;;;;4916811;29;20198;-69
2023/04/09 08:00:42;;;;;;;15.30;14.00;;;12.40;99.90;;;;;;4916216;29;20222;-69
2023/04/09 08:03:08;;;;;;;12.40;11.30;;;12.30;99.90;;;;;;4900250;29;20225;-70
2023/04/09 08:05:35;;;;;;;16.13;14.53;;;12.20;99.90;;;;;;4899812;29;20195;-70
2023/04/09 08:08:00;;;;;;;14.47;13.27;;;12.20;99.90;;;;;;4917082;29;20186;-70
2023/04/09 08:10:26;;;;;;;14.60;13.23;;;12.30;99.90;;;;;;4916864;29;20319;-70
2023/04/09 08:12:52;;;;;;;14.97;13.77;;;12.60;99.90;;;;;;4899938;29;20183;-69
2023/04/09 08:15:19;;;;;;;15.97;14.47;;;12.40;99.90;;;;;;4899696;29;20194;-70
2023/04/09 08:17:45;;;;;;;15.40;13.97;;;12.60;99.90;;;;;;4916904;29;20330;-69
2023/04/09 08:20:11;;;;;;;15.03;13.73;;;13.20;99.90;;;;;;4899804;29;20563;-69
2023/04/09 08:22:37;;;;;;;14.23;12.93;;;13.40;99.90;;;;;;4916482;29;20214;-71
2023/04/09 08:25:03;;;;;;;15.07;13.77;;;13.00;99.90;;;;;;4916134;29;20183;-69
2023/04/09 08:27:29;;;;;;;12.07;10.93;;;13.40;99.90;;;;;;4915950;29;20207;-70
2023/04/09 08:29:54;;;;;;;11.70;10.60;;;13.50;99.90;;;;;;4899225;29;20210;-70
2023/04/09 08:32:20;;;;;;;13.20;11.83;;;13.30;99.90;;;;;;4899454;29;20206;-70
2023/04/09 08:34:46;;;;;;;11.13;10.07;;;13.40;99.90;;;;;;4899169;29;20258;-70
2023/04/09 08:37:12;;;;;;;11.63;10.50;;;13.70;99.90;;;;;;4916479;29;20646;-70
2023/04/09 08:39:38;;;;;;;12.00;10.90;;;13.60;99.90;;;;;;4898985;29;20222;-70
2023/04/09 08:42:05;;;;;;;11.33;10.23;;;13.70;99.90;;;;;;4916043;29;20203;-70
2023/04/09 08:44:31;;;;;;;12.87;11.77;;;13.80;99.90;;;;;;4898914;29;20179;-71
2023/04/09 08:46:58;;;;;;;12.63;11.60;;;13.70;99.90;;;;;;4899206;29;20182;-70
2023/04/09 08:49:24;;;;;;;13.50;12.30;;;13.90;99.90;;;;;;4898763;29;20611;-69
2023/04/09 08:51:50;;;;;;;16.27;15.07;;;14.30;99.90;;;;;;4915960;29;20206;-70
2023/04/09 08:54:18;;;;;;;17.30;16.00;;;14.90;99.90;;;;;;4898760;29;20213;-70
2023/04/09 08:56:47;;;;;;;16.13;14.83;;;14.90;99.90;;;;;;4915674;29;20273;-70
2023/04/09 08:59:17;;;;;;;18.40;16.90;;;14.50;99.90;;;;;;4915664;29;20190;-70
2023/04/09 09:01:45;;;;;;;17.87;16.33;;;14.40;99.90;;;;;;4915306;29;20214;-70
2023/04/09 09:04:11;;;;;;;15.50;14.30;;;14.90;99.90;;;;;;4898590;29;20194;-69
2023/04/09 09:06:40;;;;;;;15.07;13.77;;;15.40;99.90;;;;;;4915605;29;20179;-69
2023/04/09 09:09:08;;;;;;;15.33;14.10;;;15.10;99.90;;;;;;4915621;29;20186;-70
2023/04/09 09:11:38;;;;;;;13.37;12.37;;;15.30;99.90;;;;;;4915533;29;20261;-70
2023/04/09 09:14:06;;;;;;;15.10;13.90;;;15.60;99.90;;;;;;4915438;29;20187;-69
2023/04/09 09:16:41;;;;;;;15.37;14.07;;;15.70;99.80;;;;;;4950984;23;20241;-71
2023/04/09 09:19:09;;;;;;;16.30;14.80;;;15.60;99.90;;;;;;4933768;29;20186;-70
2023/04/09 09:21:35;;;;;;;16.00;14.80;;;15.60;99.90;;;;;;4919949;29;20210;-70
2023/04/09 09:24:02;;;;;;;11.93;11.00;;;15.90;99.90;;;;;;4917056;29;20191;-70
2023/04/09 09:26:29;;;;;;;11.73;10.80;;;16.20;97.60;;;;;;4920678;29;20229;-71
2023/04/09 09:28:59;;;;;;;11.23;10.13;;;15.90;97.70;;;;;;4916898;29;20186;-70
2023/04/09 09:31:25;;;;;;;12.83;11.67;;;16.00;98.30;;;;;;4934060;29;20189;-70
2023/04/09 09:33:51;;;;;;;11.80;10.80;;;16.10;97.90;;;;;;4934311;29;20575;-71
2023/04/09 09:36:33;;;;;;;11.80;10.83;;;15.90;97.20;;;;;;4932318;29;20597;-71
2023/04/09 09:39:02;;;;;;;12.43;11.33;;;16.30;97.20;;;;;;4941591;29;20185;-70
2023/04/09 09:41:28;;;;;;;11.37;10.47;;;17.00;96.60;;;;;;4935989;29;20204;-70
2023/04/09 09:43:54;;;;;;;13.10;12.10;;;17.10;95.50;;;;;;4952721;29;20186;-70
2023/04/09 09:46:21;;;;;;;14.20;13.00;;;16.90;93.30;;;;;;4932884;29;20202;-70
2023/04/09 09:48:48;;;;;;;10.40;9.60;;;16.50;94.20;;;;;;4934066;29;20183;-70
2023/04/09 09:51:15;;;;;;;9.20;8.40;;;16.10;94.20;;;;;;4933736;29;20651;-69
2023/04/09 09:53:44;;;;;;;8.03;7.53;;;16.00;94.50;;;;;;4917105;29;20193;-72
2023/04/09 09:56:23;;;;;;;10.07;9.27;;;15.80;92.70;;;;;;4915165;29;20198;-72
2023/04/09 09:59:00;;;;;;;10.47;9.67;;;16.30;92.70;;;;;;4916995;29;20174;-71
2023/04/09 10:01:27;;;;;;;11.90;11.00;;;16.50;93.50;;;;;;4934419;29;20217;-71
2023/04/09 10:03:55;;;;;;;10.70;10.00;;;16.60;91.50;;;;;;4937754;29;20183;-72
2023/04/09 10:06:22;;;;;;;14.00;13.00;;;16.70;92.00;;;;;;4943656;29;20203;-73
2023/04/09 10:08:48;;;;;;;10.10;9.40;;;17.40;90.90;;;;;;4934154;29;20651;-72
2023/04/09 10:11:15;;;;;;;9.73;9.03;;;17.70;88.40;;;;;;4934169;29;20186;-71
2023/04/09 10:13:50;;;;;;;11.00;10.20;;;16.80;89.30;;;;;;4917576;29;20189;-74
2023/04/09 10:16:17;;;;;;;12.60;11.60;;;15.80;90.90;;;;;;4899159;29;20725;-75
2023/04/09 10:18:43;;;;;;;9.93;9.13;;;15.10;92.30;;;;;;4899728;29;20194;-74
2023/04/09 10:21:26;;;;;;;10.60;9.70;;;14.70;92.80;;;;;;4908232;29;20219;-74
2023/04/09 10:23:52;;;;;;;10.27;9.57;;;15.40;94.10;;;;;;4912846;29;20179;-74
2023/04/09 10:26:19;;;;;;;10.80;10.10;;;16.70;91.00;;;;;;4938346;29;20222;-74
2023/04/09 10:28:45;;;;;;;7.60;7.00;;;17.40;89.10;;;;;;4916364;29;20241;-71
2023/04/09 10:31:11;;;;;;;8.83;8.17;;;18.00;85.60;;;;;;4934645;28;20191;-73
2023/04/09 10:33:37;;;;;;;8.27;7.70;;;18.00;84.70;;;;;;4933916;29;20655;-73
2023/04/09 10:36:08;;;;;;;9.20;8.50;;;17.80;82.20;;;;;;4918942;28;20572;-73
2023/04/09 10:38:43;;;;;;;9.07;8.33;;;18.00;82.40;;;;;;4897568;29;20191;-73
2023/04/09 10:41:30;;;;;;;9.50;8.70;;;18.40;79.20;;;;;;4914292;29;20222;-73
2023/04/09 10:43:56;;;;;;;9.83;9.03;;;18.40;77.80;;;;;;4897657;29;20605;-73
2023/04/09 10:46:26;;;;;;;10.87;9.97;;;18.00;78.50;;;;;;4931366;29;20203;-73
2023/04/09 10:49:07;;;;;;;9.80;9.00;;;17.80;78.80;;;;;;4933366;29;20274;-73
2023/04/09 10:51:40;;;;;;;8.83;8.23;;;17.80;79.20;;;;;;4919637;29;20241;-73
2023/04/09 10:54:36;;;;;;;8.97;8.37;;;18.20;78.30;;;;;;4937705;29;20273;-73
2023/04/09 10:57:15;;;;;;;8.67;7.97;;;17.60;78.30;;;;;;4917990;29;20218;-73
2023/04/09 10:59:44;;;;;;;7.97;7.33;;;16.80;79.70;;;;;;4918582;29;20210;-73
2023/04/09 11:02:30;;;;;;;7.57;7.07;;;15.90;82.00;;;;;;4900775;29;20207;-73
2023/04/09 11:05:01;;;;;;;8.90;8.20;;;15.60;83.90;;;;;;4900769;29;20242;-72
2023/04/09 11:07:31;;;;;;;8.03;7.43;;;15.60;85.70;;;;;;4901058;29;20179;-73
2023/04/09 11:09:57;;;;;;;7.03;6.53;;;15.80;83.50;;;;;;4917348;29;20187;-73
2023/04/09 11:12:23;;;;;;;8.00;7.30;;;15.50;82.80;;;;;;4917674;29;20187;-74
2023/04/09 11:14:49;;;;;;;8.00;7.37;;;15.40;82.90;;;;;;4905233;29;20552;-73
2023/04/09 11:17:15;;;;;;;7.20;6.67;;;15.90;83.50;;;;;;4936705;29;20190;-73
2023/04/09 11:19:41;;;;;;;8.43;7.73;;;16.00;80.80;;;;;;4936107;29;20613;-73
2023/04/09 11:22:07;;;;;;;7.30;6.77;;;16.00;82.40;;;;;;4936406;29;20258;-73
2023/04/09 11:24:45;;;;;;;6.30;5.90;;;16.30;81.40;;;;;;4916883;29;20190;-73
2023/04/09 11:27:12;;;;;;;6.83;6.33;;;17.30;76.10;;;;;;4900910;29;20526;-73
2023/04/09 11:29:38;;;;;;;7.30;6.80;;;17.40;74.80;;;;;;4916940;29;20191;-73
2023/04/09 11:32:04;;;;;;;6.37;5.97;;;17.30;74.10;;;;;;4900608;29;20206;-73
2023/04/09 11:34:30;;;;;;;9.23;8.33;;;17.40;72.70;;;;;;4918338;29;20191;-73
2023/04/09 11:36:58;;;;;;;7.47;6.80;;;17.10;72.00;;;;;;4913824;29;20214;-73
2023/04/09 11:39:27;;;;;;;6.03;5.67;;;16.90;72.70;;;;;;4918565;29;20191;-73
2023/04/09 11:41:53;;;;;;;6.27;5.87;;;16.90;72.60;;;;;;4936112;29;20220;-73
2023/04/09 11:44:22;;;;;;;6.17;5.77;;;16.40;72.50;;;;;;4949589;29;20186;-72
2023/04/09 11:46:49;;;;;;;6.63;6.10;;;15.90;74.90;;;;;;4906961;29;20211;-73
2023/04/09 11:49:15;;;;;;;7.60;6.53;;;15.70;74.30;;;;;;4916703;29;20251;-71
2023/04/09 11:51:41;;;;;;;6.73;6.33;;;15.20;76.40;;;;;;4916759;29;20194;-71
2023/04/09 11:54:07;;;;;;;6.77;6.27;;;14.90;77.10;;;;;;4899941;29;20675;-74
2023/04/09 11:56:35;;;;;;;7.00;6.23;;;15.10;78.40;;;;;;4916637;29;20211;-72
2023/04/09 11:59:02;;;;;;;6.10;5.60;;;15.30;77.30;;;;;;4918453;29;20188;-72
2023/04/09 12:01:34;;;;;;;6.53;6.03;;;15.60;76.40;;;;;;4934772;29;20720;-71
2023/04/09 12:04:00;;;;;;;6.40;5.90;;;16.00;76.00;;;;;;4935781;29;20282;-72
2023/04/09 12:06:26;;;;;;;7.17;6.67;;;16.10;76.70;;;;;;4908605;29;20234;-72
2023/04/09 12:08:57;;;;;;;8.53;8.00;;;16.60;76.20;;;;;;4934884;29;20561;-72
2023/04/09 12:11:30;;;;;;;7.30;6.70;;;16.90;73.70;;;;;;4918411;29;20198;-72
2023/04/09 12:14:04;;;;;;;7.10;6.50;;;17.50;73.50;;;;;;4935608;29;20189;-72
2023/04/09 12:16:31;;;;;;;6.97;6.47;;;17.30;70.50;;;;;;4922863;29;20226;-72
2023/04/09 12:19:05;;;;;;;6.50;6.10;;;17.10;70.80;;;;;;4932704;29;20183;-72
2023/04/09 12:21:49;;;;;;;6.53;6.13;;;17.40;71.00;;;;;;4917130;29;20210;-72
2023/04/09 12:24:20;;;;;;;6.37;5.97;;;17.80;70.90;;;;;;4916261;29;20218;-72
2023/04/09 12:26:47;;;;;;;7.10;6.60;;;17.90;68.90;;;;;;4917167;29;20261;-71
2023/04/09 12:29:18;;;;;;;6.63;6.17;;;17.70;67.30;;;;;;4935018;29;20187;-72
2023/04/09 12:31:44;;;;;;;7.13;6.63;;;17.40;68.30;;;;;;4935476;29;20273;-71
2023/04/09 12:34:10;;;;;;;7.50;7.00;;;17.10;67.90;;;;;;4935069;29;20217;-72
2023/04/09 12:36:43;;;;;;;7.67;7.07;;;16.40;70.20;;;;;;4917944;29;20269;-72
2023/04/09 12:39:09;;;;;;;7.10;6.60;;;16.80;70.60;;;;;;4899021;29;20297;-72
2023/04/09 12:41:36;;;;;;;7.07;6.67;;;17.10;68.30;;;;;;4900356;29;20218;-72
2023/04/09 12:44:01;;;;;;;6.70;6.30;;;17.00;69.20;;;;;;4916352;29;20207;-72
2023/04/09 12:46:27;;;;;;;7.37;6.87;;;17.30;68.20;;;;;;4917328;29;20199;-72
2023/04/09 12:48:53;;;;;;;7.53;7.03;;;17.00;68.70;;;;;;4921417;29;20190;-71
2023/04/09 12:51:19;;;;;;;7.00;6.53;;;17.20;68.20;;;;;;4936579;29;20182;-73
2023/04/09 12:53:46;;;;;;;6.73;6.23;;;17.20;68.70;;;;;;4944713;29;20270;-74
2023/04/09 12:56:12;;;;;;;6.43;6.03;;;17.30;67.80;;;;;;4926188;29;20214;-73
2023/04/09 12:58:41;;;;;;;6.00;5.70;;;17.70;67.60;;;;;;4929394;29;20547;-72
2023/04/09 13:01:07;;;;;;;8.60;7.93;;;17.90;67.60;;;;;;4909271;29;20210;-72
2023/04/09 13:03:32;;;;;;;12.37;11.67;;;18.80;64.80;;;;;;4919160;29;20195;-73
2023/04/09 13:05:58;;;;;;;12.50;11.83;;;18.70;63.30;;;;;;4900456;29;20203;-72
2023/04/09 13:08:24;;;;;;;9.10;8.50;;;18.00;63.20;;;;;;4915648;29;20232;-72
2023/04/09 13:10:50;;;;;;;8.63;8.03;;;17.20;66.30;;;;;;4927445;29;20191;-72
2023/04/09 13:13:15;;;;;;;7.33;6.83;;;16.70;67.60;;;;;;4934540;29;20191;-73
2023/04/09 13:15:42;;;;;;;7.73;7.20;;;16.20;69.20;;;;;;4917467;29;20298;-72
2023/04/09 13:18:08;;;;;;;7.00;6.50;;;16.00;70.00;;;;;;4929999;29;20179;-72
2023/04/09 13:20:34;;;;;;;8.47;7.87;;;18.00;66.60;;;;;;4915357;29;20187;-72
2023/04/09 13:23:00;;;;;;;14.23;13.43;;;19.40;62.40;;;;;;4915450;29;20646;-72
2023/04/09 13:25:26;;;;;;;13.30;12.50;;;20.40;58.60;;;;;;4898347;29;20202;-72
2023/04/09 13:27:52;;;;;;;14.57;13.67;;;21.10;56.00;;;;;;4899611;29;20234;-73
2023/04/09 13:30:20;;;;;;;21.40;20.20;;;19.90;56.60;;;;;;4914952;29;20238;-72
2023/04/09 13:32:46;;;;;;;16.47;15.47;;;18.90;59.10;;;;;;4915496;29;20195;-72
2023/04/09 13:35:11;;;;;;;15.50;14.60;;;18.90;59.80;;;;;;4898234;29;20219;-73
2023/04/09 13:37:37;;;;;;;11.93;11.03;;;20.00;58.10;;;;;;4915221;29;20191;-73
2023/04/09 13:40:03;;;;;;;10.02;9.38;;;20.70;56.40;;;;;;4915836;29;20187;-73
2023/04/09 13:42:30;;;;;;;7.50;7.00;;;21.40;54.80;;;;;;4898356;29;20243;-73
2023/04/09 13:44:56;;;;;;;6.60;6.00;;;21.20;53.30;;;;;;4898234;29;20191;-72
2023/04/09 13:47:22;;;;;;;6.47;6.07;;;20.10;54.30;;;;;;4915268;29;20186;-73
2023/04/09 13:49:50;;;;;;;11.10;10.40;;;19.10;57.20;;;;;;4911533;29;20244;-72
2023/04/09 13:52:16;;;;;;;17.63;16.63;;;18.20;59.60;;;;;;4916978;29;20218;-73
2023/04/09 13:54:42;;;;;;;17.30;16.17;;;17.70;61.60;;;;;;4914969;29;20232;-72
2023/04/09 13:57:09;;;;;;;15.20;14.10;;;16.90;62.90;;;;;;4952192;29;20326;-73
2023/04/09 13:59:35;;;;;;;10.47;9.67;;;16.40;63.30;;;;;;4936721;28;20206;-67
2023/04/09 14:02:00;;;;;;;9.00;8.30;;;15.90;66.50;;;;;;4933975;29;20249;-72
2023/04/09 14:04:26;;;;;;;7.60;7.10;;;15.60;66.60;;;;;;4933683;29;20274;-72
2023/04/09 14:06:52;;;;;;;8.23;7.63;;;15.40;66.90;;;;;;4934394;29;20214;-71
2023/04/09 14:09:18;;;;;;;8.50;7.90;;;15.30;68.00;;;;;;4915818;29;20189;-72
2023/04/09 14:11:44;;;;;;;9.20;8.50;;;16.40;67.30;;;;;;4918522;29;20190;-72
2023/04/09 14:14:10;;;;;;;9.63;8.93;;;18.30;62.50;;;;;;4956913;28;20279;-71
2023/04/09 14:16:36;;;;;;;16.63;15.53;;;19.60;59.00;;;;;;4935401;29;20345;-72
2023/04/09 14:19:01;;;;;;;18.27;17.17;;;20.50;57.40;;;;;;4924004;29;20746;-71
2023/04/09 14:21:28;;;;;;;10.35;9.70;;;21.70;55.10;;;;;;4917514;29;20218;-72
2023/04/09 14:23:54;;;;;;;7.95;7.35;;;22.20;52.70;;;;;;4918343;29;20710;-71
2023/04/09 14:26:20;;;;;;;6.22;5.75;;;22.60;50.70;;;;;;4902682;29;20203;-71
2023/04/09 14:28:46;;;;;;;6.80;6.30;;;22.40;51.30;;;;;;4926234;29;20190;-71
2023/04/09 14:31:13;;;;;;;8.00;7.40;;;20.50;53.40;;;;;;4920245;29;20186;-71
2023/04/09 14:33:39;;;;;;;11.37;10.67;;;18.90;56.00;;;;;;4937487;29;20182;-71
2023/04/09 14:36:06;;;;;;;14.77;13.93;;;17.30;58.10;;;;;;4937368;29;20214;-71
2023/04/09 14:38:33;;;;;;;10.60;9.90;;;16.10;60.70;;;;;;4913997;29;20234;-71
2023/04/09 14:40:59;;;;;;;10.77;10.07;;;16.30;61.60;;;;;;4918306;29;20663;-71
2023/04/09 14:43:24;;;;;;;8.60;8.00;;;16.20;61.40;;;;;;4918358;29;20187;-72
2023/04/09 14:45:50;;;;;;;8.13;7.53;;;15.80;63.20;;;;;;4918262;29;20294;-71
2023/04/09 14:48:16;;;;;;;8.20;7.53;;;16.60;63.30;;;;;;4904670;29;20214;-71
2023/04/09 14:50:42;;;;;;;13.37;12.57;;;18.60;59.70;;;;;;4920198;29;20189;-71
2023/04/09 14:53:09;;;;;;;17.00;16.00;;;19.90;56.10;;;;;;4931562;29;20179;-72
2023/04/09 14:55:35;;;;;;;14.57;13.67;;;19.90;54.40;;;;;;4909041;29;20626;-71
2023/04/09 14:58:03;;;;;;;8.83;8.13;;;20.70;54.00;;;;;;4920192;29;20183;-72
2023/04/09 15:00:30;;;;;;;8.57;7.97;;;20.20;52.80;;;;;;4936915;29;20662;-71
2023/04/09 15:02:56;;;;;;;14.10;13.10;;;20.00;53.40;;;;;;4920050;29;20217;-71
2023/04/09 15:05:21;;;;;;;10.47;9.77;;;19.20;56.00;;;;;;4930829;29;20250;-72
2023/04/09 15:07:47;;;;;;;11.13;10.33;;;19.80;54.50;;;;;;4917993;29;20191;-71
2023/04/09 15:10:14;;;;;;;9.20;8.60;;;20.40;54.00;;;;;;4900742;29;20191;-71
2023/04/09 15:12:40;;;;;;;8.20;7.60;;;20.60;53.20;;;;;;4918065;29;20198;-72
2023/04/09 15:17:42;;;;;;;8.88;8.07;;;20.40;52.90;;;;;;4916675;29;20218;-72
2023/04/09 15:20:10;;;;;;;8.70;8.10;;;20.00;53.30;;;;;;4917932;29;20563;-70
2023/04/09 15:22:35;;;;;;;7.70;7.10;;;20.10;52.50;;;;;;4917699;29;20226;-70
2023/04/09 15:25:01;;;;;;;8.10;7.50;;;21.60;51.60;;;;;;4916106;29;20242;-71
2023/04/09 15:27:27;;;;;;;7.47;6.97;;;22.30;49.80;;;;;;4917289;29;20302;-71
2023/04/09 15:29:53;;;;;;;7.13;6.60;;;22.40;49.60;;;;;;4917097;29;20187;-71
2023/04/09 15:32:18;;;;;;;5.90;5.50;;;23.40;48.60;;;;;;4917568;29;20190;-70
2023/04/09 15:34:44;;;;;;;6.57;6.18;;;22.00;47.70;;;;;;4917185;29;20182;-71
2023/04/09 15:37:10;;;;;;;7.37;6.87;;;20.90;49.60;;;;;;4878517;29;20212;-71